createdAt,value
2022-12-06T00:00:16.803Z,51.08
2022-12-06T00:00:38.495Z,51.07
2022-12-06T00:01:05.816Z,51.04
2022-12-06T00:01:29.468Z,51.22
2022-12-06T00:01:51.221Z,51.34
2022-12-06T00:02:14.213Z,51.27
2022-12-06T00:02:35.994Z,51.26
2022-12-06T00:02:57.770Z,51.31
2022-12-06T00:03:19.500Z,51.48
2022-12-06T00:03:43.782Z,51.32
2022-12-06T00:04:07.433Z,51.11
2022-12-06T00:04:29.047Z,51.18
2022-12-06T00:04:50.664Z,51.17
2022-12-06T00:05:13.243Z,51.02
2022-12-06T00:05:34.837Z,50.93
2022-12-06T00:06:00.630Z,50.95
2022-12-06T00:06:24.966Z,50.93
2022-12-06T00:06:51.486Z,51.01
2022-12-06T00:07:13.253Z,51.09
2022-12-06T00:07:35.046Z,51.04
2022-12-06T00:07:56.825Z,51.33
2022-12-06T00:08:18.545Z,51.51
2022-12-06T00:08:41.761Z,51.47
2022-12-06T00:09:03.962Z,51.48
2022-12-06T00:09:28.341Z,51.35
2022-12-06T00:09:49.953Z,51.43
2022-12-06T00:10:11.841Z,51.43
2022-12-06T00:10:35.892Z,51.41
2022-12-06T00:11:03.972Z,51.65
2022-12-06T00:11:27.194Z,51.55
2022-12-06T00:11:50.021Z,51.43
2022-12-06T00:12:11.683Z,51.31
2022-12-06T00:12:33.535Z,51.33
2022-12-06T00:12:55.166Z,51.30
2022-12-06T00:13:16.748Z,51.22
2022-12-06T00:13:42.101Z,51.29
2022-12-06T00:14:06.240Z,51.12
2022-12-06T00:14:28.143Z,51.33
2022-12-06T00:14:49.786Z,51.32
2022-12-06T00:15:13.438Z,51.26
2022-12-06T00:15:36.576Z,51.47
2022-12-06T00:16:00.858Z,51.33
2022-12-06T00:16:23.491Z,51.35
2022-12-06T00:16:46.664Z,51.43
2022-12-06T00:17:08.352Z,51.46
2022-12-06T00:17:30.004Z,51.31
2022-12-06T00:17:51.564Z,51.27
2022-12-06T00:18:13.163Z,51.28
2022-12-06T00:18:37.497Z,51.03
2022-12-06T00:18:59.233Z,50.80
2022-12-06T00:19:22.747Z,50.83
2022-12-06T00:19:44.314Z,50.99
2022-12-06T00:20:08.316Z,51.00
2022-12-06T00:20:29.924Z,50.83
2022-12-06T00:20:51.452Z,50.92
2022-12-06T00:21:15.536Z,51.07
2022-12-06T00:21:39.157Z,51.12
2022-12-06T00:22:00.835Z,51.09
2022-12-06T00:22:22.562Z,51.29
2022-12-06T00:22:44.408Z,51.29
2022-12-06T00:23:06.983Z,51.31
2022-12-06T00:23:31.618Z,51.35
2022-12-06T00:23:56.702Z,51.38
2022-12-06T00:24:21.558Z,51.19
2022-12-06T00:24:43.206Z,51.36
2022-12-06T00:25:05.520Z,51.33
2022-12-06T00:25:27.126Z,51.27
2022-12-06T00:25:48.698Z,51.61
2022-12-06T00:26:10.637Z,51.74
2022-12-06T00:26:37.397Z,51.73
2022-12-06T00:26:58.966Z,51.64
2022-12-06T00:27:20.760Z,51.66
2022-12-06T00:27:42.385Z,51.71
2022-12-06T00:28:05.219Z,51.56
2022-12-06T00:28:26.927Z,51.56
2022-12-06T00:28:52.509Z,51.46
2022-12-06T00:29:16.500Z,51.45
2022-12-06T00:29:38.070Z,51.57
2022-12-06T00:29:59.927Z,51.64
2022-12-06T00:30:21.727Z,51.77
2022-12-06T00:30:44.301Z,51.76
2022-12-06T00:31:08.013Z,51.79
2022-12-06T00:31:31.374Z,51.94
2022-12-06T00:31:54.525Z,51.97
2022-12-06T00:32:19.442Z,52.13
2022-12-06T00:32:41.430Z,52.14
2022-12-06T00:33:03.264Z,51.92
2022-12-06T00:33:25.848Z,51.75
2022-12-06T00:33:47.510Z,51.82
2022-12-06T00:34:09.400Z,51.67
2022-12-06T00:34:31.021Z,51.64
2022-12-06T00:34:53.528Z,51.66
2022-12-06T00:35:15.350Z,51.71
2022-12-06T00:35:37.133Z,51.78
2022-12-06T00:36:00.889Z,51.68
2022-12-06T00:36:26.790Z,51.64
2022-12-06T00:36:48.839Z,51.70
2022-12-06T00:37:10.419Z,51.73
2022-12-06T00:37:31.992Z,51.84
2022-12-06T00:37:54.619Z,52.05
2022-12-06T00:38:16.205Z,52.12
2022-12-06T00:38:38.076Z,52.11
2022-12-06T00:39:00.097Z,52.20
2022-12-06T00:39:21.685Z,51.97
2022-12-06T00:39:44.321Z,52.47
2022-12-06T00:40:07.137Z,52.47
2022-12-06T00:40:28.825Z,52.27
2022-12-06T00:40:50.581Z,52.35
2022-12-06T00:41:15.067Z,52.36
2022-12-06T00:41:37.319Z,52.58
2022-12-06T00:41:58.982Z,52.51
2022-12-06T00:42:20.546Z,52.51
2022-12-06T00:42:42.104Z,52.53
2022-12-06T00:43:04.728Z,52.40
2022-12-06T00:43:26.405Z,52.45
2022-12-06T00:43:48.857Z,52.46
2022-12-06T00:44:12.470Z,52.31
2022-12-06T00:44:35.078Z,52.22
2022-12-06T00:44:56.750Z,52.30
2022-12-06T00:45:18.378Z,52.20
2022-12-06T00:45:40.026Z,52.20
2022-12-06T00:46:04.575Z,52.08
2022-12-06T00:46:28.653Z,52.20
2022-12-06T00:46:50.354Z,52.35
2022-12-06T00:47:12.946Z,52.42
2022-12-06T00:47:34.527Z,52.22
2022-12-06T00:47:56.160Z,52.36
2022-12-06T00:48:17.772Z,52.15
2022-12-06T00:48:39.503Z,52.12
2022-12-06T00:49:03.764Z,52.22
2022-12-06T00:49:25.365Z,52.13
2022-12-06T00:49:47.035Z,52.12
2022-12-06T00:50:09.561Z,52.13
2022-12-06T00:50:32.158Z,52.25
2022-12-06T00:50:54.114Z,52.10
2022-12-06T00:51:18.101Z,52.17
2022-12-06T00:51:41.158Z,52.05
2022-12-06T00:52:02.818Z,51.99
2022-12-06T00:52:24.434Z,51.98
2022-12-06T00:52:46.016Z,52.04
2022-12-06T00:53:07.615Z,52.05
2022-12-06T00:53:29.469Z,51.97
2022-12-06T00:53:52.509Z,51.97
2022-12-06T00:54:15.144Z,51.92
2022-12-06T00:54:36.765Z,52.02
2022-12-06T00:54:59.416Z,51.93
2022-12-06T00:55:20.988Z,52.02
2022-12-06T00:55:42.976Z,51.90
2022-12-06T00:56:05.203Z,51.88
2022-12-06T00:56:27.291Z,51.98
2022-12-06T00:56:49.973Z,51.88
2022-12-06T00:57:11.533Z,51.92
2022-12-06T00:57:33.084Z,51.96
2022-12-06T00:57:54.660Z,51.95
2022-12-06T00:58:17.071Z,51.95
2022-12-06T00:58:39.998Z,51.83
2022-12-06T00:59:01.569Z,51.94
2022-12-06T00:59:24.501Z,51.86
2022-12-06T00:59:46.062Z,51.76
2022-12-06T01:00:09.708Z,51.68
2022-12-06T01:00:31.347Z,51.78
2022-12-06T01:00:53.178Z,51.81
2022-12-06T01:01:16.584Z,51.85
2022-12-06T01:01:39.397Z,51.88
2022-12-06T01:02:01.035Z,51.94
2022-12-06T01:02:22.606Z,51.86
2022-12-06T01:02:44.417Z,51.81
2022-12-06T01:03:06.201Z,51.80
2022-12-06T01:03:34.860Z,51.77
2022-12-06T01:03:59.714Z,51.82
2022-12-06T01:04:21.339Z,51.81
2022-12-06T01:04:42.934Z,51.79
2022-12-06T01:05:06.069Z,51.84
2022-12-06T01:05:28.266Z,51.71
2022-12-06T01:05:50.718Z,51.75
2022-12-06T01:06:14.834Z,51.57
2022-12-06T01:06:39.186Z,51.60
2022-12-06T01:07:01.043Z,51.53
2022-12-06T01:07:22.613Z,51.68
2022-12-06T01:07:44.262Z,51.52
2022-12-06T01:08:06.041Z,51.54
2022-12-06T01:08:28.631Z,51.60
2022-12-06T01:08:50.556Z,51.61
2022-12-06T01:09:12.388Z,51.72
2022-12-06T01:09:34.005Z,51.75
2022-12-06T01:09:57.532Z,51.64
2022-12-06T01:10:19.676Z,51.84
2022-12-06T01:10:41.533Z,51.73
2022-12-06T01:11:03.766Z,51.76
2022-12-06T01:11:26.822Z,51.93
2022-12-06T01:11:49.495Z,51.65
2022-12-06T01:12:11.202Z,51.65
2022-12-06T01:12:32.849Z,51.62
2022-12-06T01:12:54.395Z,51.54
2022-12-06T01:13:16.932Z,51.54
2022-12-06T01:13:38.612Z,51.71
2022-12-06T01:14:00.753Z,51.67
2022-12-06T01:14:23.767Z,51.36
2022-12-06T01:14:46.429Z,51.73
2022-12-06T01:15:09.038Z,51.89
2022-12-06T01:15:31.787Z,51.73
2022-12-06T01:15:54.230Z,51.84
2022-12-06T01:16:18.575Z,51.73
2022-12-06T01:16:41.869Z,51.80
2022-12-06T01:17:03.652Z,51.56
2022-12-06T01:17:25.712Z,51.49
2022-12-06T01:17:47.368Z,51.48
2022-12-06T01:18:10.021Z,51.39
2022-12-06T01:18:31.651Z,51.41
2022-12-06T01:18:55.548Z,51.60
2022-12-06T01:19:18.107Z,51.60
2022-12-06T01:19:39.702Z,51.63
2022-12-06T01:20:01.504Z,51.68
2022-12-06T01:20:23.477Z,51.58
2022-12-06T01:20:46.031Z,51.82
2022-12-06T01:21:09.740Z,52.03
2022-12-06T01:21:31.603Z,52.00
2022-12-06T01:21:53.186Z,51.95
2022-12-06T01:22:15.871Z,52.06
2022-12-06T01:22:37.484Z,51.88
2022-12-06T01:22:59.056Z,51.98
2022-12-06T01:23:20.672Z,52.00
2022-12-06T01:23:42.685Z,52.08
2022-12-06T01:24:05.859Z,52.03
2022-12-06T01:24:27.458Z,51.86
2022-12-06T01:24:49.049Z,52.02
2022-12-06T01:25:10.881Z,51.93
2022-12-06T01:25:35.816Z,52.20
2022-12-06T01:25:58.896Z,51.91
2022-12-06T01:26:23.586Z,52.01
2022-12-06T01:26:45.178Z,52.11
2022-12-06T01:27:07.424Z,52.08
2022-12-06T01:27:29.077Z,52.11
2022-12-06T01:27:51.827Z,52.12
2022-12-06T01:28:13.405Z,52.13
2022-12-06T01:28:35.061Z,52.06
2022-12-06T01:28:58.108Z,52.51
2022-12-06T01:29:20.818Z,52.13
2022-12-06T01:29:43.821Z,52.10
2022-12-06T01:30:07.270Z,52.05
2022-12-06T01:30:29.692Z,52.11
2022-12-06T01:30:51.419Z,52.15
2022-12-06T01:31:14.898Z,52.09
2022-12-06T01:31:38.984Z,52.17
2022-12-06T01:32:00.952Z,52.15
2022-12-06T01:33:08.268Z,52.21
2022-12-06T01:33:29.877Z,52.17
2022-12-06T01:33:51.507Z,52.03
2022-12-06T01:34:16.621Z,52.09
2022-12-06T01:34:38.734Z,52.10
2022-12-06T01:35:00.313Z,52.08
2022-12-06T01:35:21.954Z,52.10
2022-12-06T01:35:43.856Z,52.20
2022-12-06T01:36:06.771Z,52.12
2022-12-06T01:36:28.385Z,52.11
2022-12-06T01:36:50.296Z,52.08
2022-12-06T01:37:12.110Z,52.16
2022-12-06T01:37:33.803Z,51.98
2022-12-06T01:37:56.338Z,51.98
2022-12-06T01:38:18.269Z,51.95
2022-12-06T01:38:39.818Z,52.13
2022-12-06T01:39:06.460Z,52.01
2022-12-06T01:39:29.061Z,51.98
2022-12-06T01:39:50.718Z,52.05
2022-12-06T01:40:13.529Z,52.02
2022-12-06T01:40:38.824Z,51.92
2022-12-06T01:41:00.517Z,51.95
2022-12-06T01:41:25.249Z,52.11
2022-12-06T01:41:46.782Z,52.13
2022-12-06T01:42:10.686Z,52.02
2022-12-06T01:42:32.326Z,51.91
2022-12-06T01:42:54.827Z,51.99
2022-12-06T01:43:33.805Z,52.08
2022-12-06T01:43:55.981Z,51.78
2022-12-06T01:44:44.879Z,51.94
2022-12-06T01:45:07.675Z,51.91
2022-12-06T01:45:29.286Z,51.72
2022-12-06T01:45:50.895Z,51.77
2022-12-06T01:46:26.089Z,51.82
2022-12-06T01:46:48.021Z,52.07
2022-12-06T01:47:13.557Z,51.97
2022-12-06T01:47:39.982Z,51.87
2022-12-06T01:48:01.901Z,51.95
2022-12-06T01:48:26.448Z,51.91
2022-12-06T01:48:50.325Z,51.93
2022-12-06T01:49:20.056Z,51.90
2022-12-06T01:49:44.479Z,51.87
2022-12-06T01:50:11.662Z,51.81
2022-12-06T01:50:33.720Z,51.75
2022-12-06T01:50:58.244Z,51.70
2022-12-06T01:51:21.277Z,51.73
2022-12-06T01:51:45.855Z,51.69
2022-12-06T01:52:13.371Z,51.84
2022-12-06T01:52:39.711Z,51.86
2022-12-06T01:53:06.594Z,51.83
2022-12-06T01:53:28.205Z,51.89
2022-12-06T01:53:53.869Z,51.93
2022-12-06T01:54:17.271Z,51.98
2022-12-06T01:54:40.209Z,51.97
2022-12-06T01:55:03.116Z,51.90
2022-12-06T01:55:29.517Z,51.93
2022-12-06T01:55:52.745Z,51.97
2022-12-06T01:56:14.939Z,51.86
2022-12-06T01:56:38.332Z,51.83
2022-12-06T01:57:05.241Z,51.89
2022-12-06T01:57:27.400Z,51.85
2022-12-06T01:57:51.502Z,51.94
2022-12-06T01:58:18.423Z,51.86
2022-12-06T01:58:43.425Z,52.00
2022-12-06T01:59:06.427Z,52.11
2022-12-06T01:59:29.294Z,52.15
2022-12-06T01:59:52.270Z,52.12
2022-12-06T02:00:16.037Z,52.03
2022-12-06T02:00:37.756Z,52.02
2022-12-06T02:01:01.241Z,51.99
2022-12-06T02:01:25.008Z,51.96
2022-12-06T02:01:48.399Z,51.84
2022-12-06T02:02:10.303Z,51.89
2022-12-06T02:02:31.969Z,51.95
2022-12-06T02:02:55.879Z,51.91
2022-12-06T02:03:22.418Z,51.95
2022-12-06T02:03:45.944Z,51.89
2022-12-06T02:04:08.720Z,51.89
2022-12-06T02:04:31.689Z,52.00
2022-12-06T02:04:54.898Z,51.85
2022-12-06T02:05:17.390Z,52.06
2022-12-06T02:05:40.831Z,51.97
2022-12-06T02:06:07.099Z,51.98
2022-12-06T02:06:30.173Z,52.12
2022-12-06T02:06:54.007Z,52.04
2022-12-06T02:07:16.842Z,51.90
2022-12-06T02:07:39.791Z,52.20
2022-12-06T02:08:01.628Z,52.01
2022-12-06T02:08:24.535Z,52.04
2022-12-06T02:08:46.802Z,51.92
2022-12-06T02:09:12.013Z,51.96
2022-12-06T02:09:36.051Z,52.14
2022-12-06T02:09:58.278Z,52.18
2022-12-06T02:10:20.570Z,52.15
2022-12-06T02:10:42.528Z,52.20
2022-12-06T02:11:05.985Z,52.02
2022-12-06T02:11:32.076Z,52.13
2022-12-06T02:11:56.651Z,52.21
2022-12-06T02:12:18.357Z,52.07
2022-12-06T02:12:40.948Z,52.05
2022-12-06T02:13:03.167Z,52.20
2022-12-06T02:13:25.287Z,52.20
2022-12-06T02:13:47.374Z,51.96
2022-12-06T02:14:12.966Z,51.96
2022-12-06T02:14:35.365Z,51.98
2022-12-06T02:14:59.534Z,51.92
2022-12-06T02:15:30.516Z,51.84
2022-12-06T02:15:59.703Z,51.79
2022-12-06T02:16:39.281Z,51.82
2022-12-06T02:17:12.169Z,51.87
2022-12-06T02:17:45.386Z,51.90
2022-12-06T02:18:13.664Z,51.83
2022-12-06T02:18:43.739Z,51.96
2022-12-06T02:19:25.048Z,52.07
2022-12-06T02:20:08.612Z,52.13
2022-12-06T02:20:33.426Z,52.10
2022-12-06T02:21:05.528Z,52.17
2022-12-06T02:21:38.762Z,52.16
2022-12-06T02:22:06.253Z,52.11
2022-12-06T02:22:38.129Z,52.15
2022-12-06T02:23:25.272Z,52.10
2022-12-06T02:24:11.643Z,52.23
2022-12-06T02:25:06.498Z,52.30
2022-12-06T02:25:51.348Z,52.02
2022-12-06T02:26:24.711Z,52.28
2022-12-06T02:26:49.416Z,52.10
2022-12-06T02:27:34.776Z,52.30
2022-12-06T02:28:20.950Z,52.31
2022-12-06T02:29:20.511Z,52.39
2022-12-06T02:30:08.784Z,52.51
2022-12-06T02:30:43.927Z,52.37
2022-12-06T02:31:09.883Z,52.49
2022-12-06T02:31:36.924Z,52.37
2022-12-06T02:32:01.333Z,52.40
2022-12-06T02:32:29.286Z,52.52
2022-12-06T02:32:55.870Z,52.50
2022-12-06T02:33:23.359Z,52.60
2022-12-06T02:33:49.226Z,52.60
2022-12-06T02:34:17.278Z,52.58
2022-12-06T02:34:45.314Z,52.47
2022-12-06T02:35:12.808Z,52.37
2022-12-06T02:35:39.033Z,52.64
2022-12-06T02:36:07.927Z,52.58
2022-12-06T02:36:33.813Z,52.43
2022-12-06T02:37:00.363Z,52.31
2022-12-06T02:37:27.405Z,52.32
2022-12-06T02:37:54.391Z,52.33
2022-12-06T02:38:22.471Z,52.53
2022-12-06T02:38:48.872Z,52.66
2022-12-06T02:39:16.359Z,52.55
2022-12-06T02:39:46.493Z,52.46
2022-12-06T02:40:12.042Z,52.60
2022-12-06T02:40:38.083Z,52.62
2022-12-06T02:41:05.365Z,52.62
2022-12-06T02:41:33.668Z,52.48
2022-12-06T02:41:59.317Z,52.41
2022-12-06T02:42:25.889Z,52.34
2022-12-06T02:42:53.614Z,52.26
2022-12-06T02:43:19.919Z,52.32
2022-12-06T02:43:45.855Z,52.17
2022-12-06T02:44:16.630Z,52.72
2022-12-06T02:44:44.241Z,52.35
2022-12-06T02:45:12.758Z,52.67
2022-12-06T02:45:42.920Z,52.78
2022-12-06T02:46:07.039Z,52.86
2022-12-06T02:46:33.101Z,52.85
2022-12-06T02:46:58.483Z,52.90
2022-12-06T02:47:23.625Z,52.90
2022-12-06T02:47:49.099Z,52.88
2022-12-06T02:48:12.716Z,52.94
2022-12-06T02:48:34.869Z,52.89
2022-12-06T02:48:59.447Z,52.82
2022-12-06T02:49:25.407Z,52.83
2022-12-06T02:49:50.059Z,52.69
2022-12-06T02:50:17.648Z,52.68
2022-12-06T02:50:44.082Z,52.61
2022-12-06T02:51:09.330Z,52.66
2022-12-06T02:51:32.931Z,52.52
2022-12-06T02:51:56.620Z,52.56
2022-12-06T02:52:20.860Z,52.46
2022-12-06T02:52:45.798Z,52.43
2022-12-06T02:53:12.629Z,52.50
2022-12-06T02:53:38.881Z,52.56
2022-12-06T02:54:03.921Z,52.54
2022-12-06T02:54:28.144Z,52.53
2022-12-06T02:54:51.754Z,52.52
2022-12-06T02:55:15.593Z,52.37
2022-12-06T02:55:38.291Z,52.34
2022-12-06T02:56:00.697Z,52.34
2022-12-06T02:56:23.589Z,52.32
2022-12-06T02:56:45.152Z,52.43
2022-12-06T02:57:06.897Z,52.40
2022-12-06T02:57:40.447Z,52.35
2022-12-06T02:58:02.050Z,52.11
2022-12-06T02:58:23.706Z,52.39
2022-12-06T02:58:45.818Z,52.23
2022-12-06T02:59:08.421Z,52.26
2022-12-06T02:59:29.948Z,52.33
2022-12-06T02:59:53.770Z,52.16
2022-12-06T03:00:35.430Z,52.06
2022-12-06T03:01:02.620Z,52.11
2022-12-06T03:01:27.699Z,52.23
2022-12-06T03:01:52.672Z,52.13
2022-12-06T03:02:14.405Z,52.19
2022-12-06T03:02:37.880Z,52.29
2022-12-06T03:03:10.328Z,52.21
2022-12-06T03:03:50.711Z,52.24
2022-12-06T03:04:46.186Z,52.16
2022-12-06T03:05:16.013Z,52.27
2022-12-06T03:05:42.246Z,52.22
2022-12-06T03:06:34.592Z,52.08
2022-12-06T03:07:09.970Z,52.10
2022-12-06T03:07:40.415Z,51.95
2022-12-06T03:08:07.091Z,52.00
2022-12-06T03:08:39.241Z,52.07
2022-12-06T03:09:10.299Z,52.11
2022-12-06T03:09:46.317Z,52.10
2022-12-06T03:10:40.814Z,52.14
2022-12-06T03:11:03.881Z,52.20
2022-12-06T03:11:31.579Z,52.26
2022-12-06T03:11:59.696Z,52.29
2022-12-06T03:12:30.957Z,52.26
2022-12-06T03:13:01.554Z,52.34
2022-12-06T03:13:30.426Z,52.29
2022-12-06T03:13:57.918Z,52.43
2022-12-06T03:14:23.115Z,52.46
2022-12-06T03:14:53.632Z,52.38
2022-12-06T03:15:23.852Z,52.54
2022-12-06T03:15:54.043Z,52.50
2022-12-06T03:16:23.921Z,52.51
2022-12-06T03:16:49.440Z,52.75
2022-12-06T03:17:19.234Z,52.44
2022-12-06T03:17:46.171Z,52.50
2022-12-06T03:18:14.061Z,52.33
2022-12-06T03:18:42.962Z,52.23
2022-12-06T03:19:09.695Z,52.22
2022-12-06T03:19:33.119Z,52.45
2022-12-06T03:19:59.394Z,52.44
2022-12-06T03:20:26.387Z,52.43
2022-12-06T03:20:53.897Z,52.57
2022-12-06T03:21:22.968Z,52.56
2022-12-06T03:21:50.033Z,52.28
2022-12-06T03:22:16.217Z,52.34
2022-12-06T03:22:42.042Z,52.29
2022-12-06T03:23:07.733Z,52.34
2022-12-06T03:23:34.446Z,52.47
2022-12-06T03:23:56.630Z,52.57
2022-12-06T03:24:21.801Z,52.46
2022-12-06T03:24:45.688Z,52.42
2022-12-06T03:25:10.099Z,52.39
2022-12-06T03:25:35.642Z,52.48
2022-12-06T03:26:00.639Z,52.51
2022-12-06T03:26:28.689Z,52.59
2022-12-06T03:26:52.799Z,52.59
2022-12-06T03:27:18.057Z,52.54
2022-12-06T03:27:42.400Z,52.36
2022-12-06T03:28:07.853Z,52.37
2022-12-06T03:28:30.275Z,52.25
2022-12-06T03:28:56.813Z,52.39
2022-12-06T03:29:23.866Z,52.32
2022-12-06T03:29:51.175Z,52.33
2022-12-06T03:30:15.178Z,52.32
2022-12-06T03:30:37.846Z,52.44
2022-12-06T03:31:03.663Z,52.40
2022-12-06T03:31:30.230Z,52.47
2022-12-06T03:31:53.978Z,52.47
2022-12-06T03:32:19.000Z,52.40
2022-12-06T03:32:44.026Z,52.40
2022-12-06T03:33:06.786Z,52.33
2022-12-06T03:33:32.054Z,52.41
2022-12-06T03:33:58.389Z,52.41
2022-12-06T03:34:25.515Z,52.40
2022-12-06T03:34:51.998Z,52.57
2022-12-06T03:35:19.386Z,52.40
2022-12-06T03:35:42.309Z,52.27
2022-12-06T03:36:04.199Z,52.43
2022-12-06T03:36:29.594Z,52.37
2022-12-06T03:36:53.175Z,52.56
2022-12-06T03:37:18.240Z,52.40
2022-12-06T03:37:43.294Z,52.38
2022-12-06T03:38:10.964Z,52.38
2022-12-06T03:38:36.927Z,52.19
2022-12-06T03:39:01.646Z,51.92
2022-12-06T03:39:29.237Z,52.06
2022-12-06T03:39:59.847Z,52.00
2022-12-06T03:40:26.549Z,52.01
2022-12-06T03:40:52.046Z,52.23
2022-12-06T03:41:16.464Z,52.18
2022-12-06T03:41:44.548Z,52.22
2022-12-06T03:42:06.668Z,52.13
2022-12-06T03:42:29.273Z,52.16
2022-12-06T03:42:51.483Z,52.23
2022-12-06T03:43:14.446Z,52.14
2022-12-06T03:43:36.554Z,52.25
2022-12-06T03:43:59.632Z,52.30
2022-12-06T03:44:22.421Z,52.39
2022-12-06T03:44:45.146Z,52.27
2022-12-06T03:45:09.819Z,52.31
2022-12-06T03:45:38.094Z,52.30
2022-12-06T03:46:06.727Z,52.25
2022-12-06T03:46:35.035Z,52.28
2022-12-06T03:47:02.066Z,52.46
2022-12-06T03:47:31.232Z,52.41
2022-12-06T03:48:01.361Z,52.49
2022-12-06T03:48:27.485Z,52.48
2022-12-06T03:48:52.690Z,52.40
2022-12-06T03:49:17.633Z,52.58
2022-12-06T03:49:43.783Z,52.47
2022-12-06T03:50:09.746Z,52.52
2022-12-06T03:50:36.768Z,52.51
2022-12-06T03:51:04.027Z,52.61
2022-12-06T03:51:28.380Z,52.51
2022-12-06T03:51:50.136Z,52.42
2022-12-06T03:52:12.836Z,52.41
2022-12-06T03:52:35.452Z,52.38
2022-12-06T03:52:57.534Z,52.42
2022-12-06T03:53:20.250Z,52.45
2022-12-06T03:53:48.138Z,52.37
2022-12-06T03:54:10.409Z,52.36
2022-12-06T03:54:32.116Z,52.43
2022-12-06T03:54:53.678Z,52.57
2022-12-06T03:55:15.277Z,52.60
2022-12-06T03:55:37.878Z,52.51
2022-12-06T03:55:59.759Z,52.42
2022-12-06T03:56:23.481Z,52.33
2022-12-06T03:56:45.197Z,52.50
2022-12-06T03:57:07.978Z,52.59
2022-12-06T03:57:29.649Z,52.71
2022-12-06T03:57:51.194Z,52.55
2022-12-06T03:58:13.239Z,52.46
2022-12-06T03:58:35.778Z,52.45
2022-12-06T03:58:57.339Z,52.42
2022-12-06T03:59:18.913Z,52.40
2022-12-06T03:59:40.572Z,52.28
2022-12-06T04:00:02.328Z,52.38
2022-12-06T04:00:34.044Z,52.54
2022-12-06T04:00:55.716Z,52.54
2022-12-06T04:01:17.351Z,52.37
2022-12-06T04:01:40.369Z,52.25
2022-12-06T04:02:03.134Z,52.34
2022-12-06T04:02:24.845Z,52.35
2022-12-06T04:02:46.671Z,52.36
2022-12-06T04:03:08.449Z,52.51
2022-12-06T04:03:31.050Z,52.61
2022-12-06T04:03:52.635Z,52.34
2022-12-06T04:04:14.439Z,52.32
2022-12-06T04:04:36.112Z,52.50
2022-12-06T04:04:59.197Z,52.31
2022-12-06T04:05:20.970Z,52.44
2022-12-06T04:05:42.749Z,52.44
2022-12-06T04:06:05.910Z,52.38
2022-12-06T04:06:29.055Z,52.36
2022-12-06T04:06:50.744Z,52.27
2022-12-06T04:07:12.437Z,52.39
2022-12-06T04:07:34.173Z,52.52
2022-12-06T04:07:56.805Z,52.50
2022-12-06T04:08:18.451Z,52.47
2022-12-06T04:08:40.109Z,52.51
2022-12-06T04:09:16.658Z,52.43
2022-12-06T04:09:56.165Z,52.35
2022-12-06T04:10:18.689Z,52.23
2022-12-06T04:10:40.258Z,52.32
2022-12-06T04:11:02.087Z,52.33
2022-12-06T04:11:24.665Z,52.40
2022-12-06T04:11:46.428Z,52.07
2022-12-06T04:12:28.295Z,52.38
2022-12-06T04:13:02.155Z,52.28
2022-12-06T04:13:23.775Z,52.24
2022-12-06T04:13:46.383Z,52.33
2022-12-06T04:14:07.990Z,52.37
2022-12-06T04:14:32.378Z,52.38
2022-12-06T04:14:54.032Z,52.35
2022-12-06T04:15:16.777Z,52.44
2022-12-06T04:15:40.487Z,52.45
2022-12-06T04:16:02.520Z,52.48
2022-12-06T04:16:42.871Z,52.72
2022-12-06T04:17:24.807Z,52.67
2022-12-06T04:18:04.991Z,52.54
2022-12-06T04:18:27.690Z,52.66
2022-12-06T04:18:49.263Z,52.78
2022-12-06T04:19:10.878Z,52.69
2022-12-06T04:19:33.435Z,52.82
2022-12-06T04:19:55.001Z,52.82
2022-12-06T04:20:16.868Z,52.77
2022-12-06T04:21:04.956Z,52.82
2022-12-06T04:21:45.250Z,52.86
2022-12-06T04:22:25.732Z,52.75
2022-12-06T04:23:05.729Z,52.69
2022-12-06T04:23:28.006Z,52.65
2022-12-06T04:23:52.382Z,52.64
2022-12-06T04:24:14.042Z,52.82
2022-12-06T04:24:35.725Z,52.89
2022-12-06T04:24:57.302Z,52.86
2022-12-06T04:25:18.946Z,52.70
2022-12-06T04:25:40.614Z,52.71
2022-12-06T04:26:04.371Z,52.87
2022-12-06T04:26:26.952Z,52.75
2022-12-06T04:26:48.657Z,52.72
2022-12-06T04:27:28.881Z,52.70
2022-12-06T04:28:09.011Z,52.88
2022-12-06T04:28:49.025Z,52.81
2022-12-06T04:29:29.011Z,52.76
2022-12-06T04:30:09.049Z,52.77
2022-12-06T04:30:49.133Z,52.91
2022-12-06T04:31:29.501Z,52.84
2022-12-06T04:32:09.451Z,52.80
2022-12-06T04:32:51.037Z,52.87
2022-12-06T04:33:31.431Z,52.87
2022-12-06T04:34:11.488Z,52.90
2022-12-06T04:34:51.585Z,52.87
2022-12-06T04:35:31.531Z,52.73
2022-12-06T04:36:14.663Z,52.85
2022-12-06T04:36:58.211Z,52.79
2022-12-06T04:37:38.431Z,52.66
2022-12-06T04:38:18.852Z,52.64
2022-12-06T04:38:41.965Z,52.65
2022-12-06T04:39:04.038Z,52.63
2022-12-06T04:39:26.045Z,52.76
2022-12-06T04:39:48.620Z,52.83
2022-12-06T04:40:11.153Z,52.85
2022-12-06T04:40:33.883Z,52.96
2022-12-06T04:40:55.502Z,52.83
2022-12-06T04:41:37.259Z,52.86
2022-12-06T04:42:17.477Z,52.66
2022-12-06T04:42:57.890Z,52.68
2022-12-06T04:43:38.193Z,52.78
2022-12-06T04:43:59.947Z,52.83
2022-12-06T04:44:22.552Z,52.92
2022-12-06T04:44:44.650Z,52.96
2022-12-06T04:45:07.716Z,52.92
2022-12-06T04:45:30.360Z,52.97
2022-12-06T04:45:51.994Z,52.89
2022-12-06T04:46:15.591Z,52.71
2022-12-06T04:46:37.533Z,52.87
2022-12-06T04:47:00.024Z,52.94
2022-12-06T04:47:22.892Z,52.99
2022-12-06T04:47:45.871Z,52.97
2022-12-06T04:48:07.475Z,53.02
2022-12-06T04:48:29.043Z,52.98
2022-12-06T04:48:50.947Z,52.86
2022-12-06T04:49:13.581Z,52.80
2022-12-06T04:49:36.338Z,52.93
2022-12-06T04:49:58.355Z,52.87
2022-12-06T04:50:21.230Z,52.91
2022-12-06T04:50:47.173Z,52.94
2022-12-06T04:51:12.738Z,52.81
2022-12-06T04:51:34.955Z,52.74
2022-12-06T04:51:56.784Z,52.76
2022-12-06T04:52:19.971Z,52.71
2022-12-06T04:52:41.660Z,52.73
2022-12-06T04:53:03.243Z,52.71
2022-12-06T04:53:24.799Z,52.70
2022-12-06T04:53:46.409Z,52.71
2022-12-06T04:54:09.227Z,52.63
2022-12-06T04:54:31.538Z,52.75
2022-12-06T04:54:53.151Z,52.82
2022-12-06T04:55:15.769Z,52.82
2022-12-06T04:55:37.387Z,52.76
2022-12-06T04:55:59.191Z,52.81
2022-12-06T04:56:21.184Z,52.82
2022-12-06T04:56:42.757Z,52.78
2022-12-06T04:57:11.131Z,52.90
2022-12-06T04:57:33.060Z,52.84
2022-12-06T04:57:55.009Z,52.83
2022-12-06T04:58:16.583Z,53.00
2022-12-06T04:58:38.237Z,52.91
2022-12-06T04:59:00.848Z,52.93
2022-12-06T04:59:22.530Z,52.88
2022-12-06T04:59:46.090Z,52.87
2022-12-06T05:00:09.487Z,52.84
2022-12-06T05:00:31.082Z,52.96
2022-12-06T05:00:54.801Z,52.94
2022-12-06T05:01:16.574Z,52.79
2022-12-06T05:01:38.250Z,52.92
2022-12-06T05:02:00.853Z,53.02
2022-12-06T05:02:22.506Z,53.03
2022-12-06T05:02:44.095Z,52.95
2022-12-06T05:03:07.027Z,53.09
2022-12-06T05:03:28.709Z,53.04
2022-12-06T05:03:51.408Z,53.05
2022-12-06T05:04:13.332Z,52.90
2022-12-06T05:04:35.106Z,52.92
2022-12-06T05:04:56.666Z,52.95
2022-12-06T05:05:19.215Z,52.90
2022-12-06T05:05:41.170Z,52.86
2022-12-06T05:06:02.940Z,52.87
2022-12-06T05:06:24.590Z,52.93
2022-12-06T05:06:47.207Z,53.01
2022-12-06T05:07:09.711Z,52.93
2022-12-06T05:07:31.383Z,53.00
2022-12-06T05:07:54.067Z,52.85
2022-12-06T05:08:15.955Z,52.99
2022-12-06T05:08:37.534Z,53.00
2022-12-06T05:08:59.212Z,52.92
2022-12-06T05:09:21.782Z,52.77
2022-12-06T05:09:43.354Z,52.88
2022-12-06T05:10:06.442Z,52.95
2022-12-06T05:10:28.014Z,52.95
2022-12-06T05:10:51.634Z,52.93
2022-12-06T05:11:13.226Z,52.86
2022-12-06T05:11:34.825Z,52.97
2022-12-06T05:11:57.424Z,53.06
2022-12-06T05:12:18.996Z,53.07
2022-12-06T05:12:40.542Z,52.93
2022-12-06T05:13:02.202Z,52.95
2022-12-06T05:13:25.092Z,52.92
2022-12-06T05:13:46.925Z,52.97
2022-12-06T05:14:08.734Z,52.77
2022-12-06T05:14:30.532Z,52.84
2022-12-06T05:14:53.113Z,52.92
2022-12-06T05:15:16.059Z,52.64
2022-12-06T05:15:37.667Z,52.74
2022-12-06T05:16:02.755Z,52.58
2022-12-06T05:16:25.464Z,52.63
2022-12-06T05:16:47.210Z,52.81
2022-12-06T05:17:08.920Z,52.72
2022-12-06T05:17:30.504Z,52.67
2022-12-06T05:17:53.126Z,53.05
2022-12-06T05:18:16.065Z,52.82
2022-12-06T05:18:37.910Z,52.91
2022-12-06T05:18:59.537Z,52.77
2022-12-06T05:19:22.255Z,52.78
2022-12-06T05:19:43.823Z,52.79
2022-12-06T05:20:07.075Z,52.75
2022-12-06T05:20:28.626Z,52.78
2022-12-06T05:20:50.616Z,52.84
2022-12-06T05:21:15.470Z,52.85
2022-12-06T05:21:37.010Z,52.87